sensor_id;sensor_type;location;lat;lon;timestamp;P1;durP1;ratioP1;P2;durP2;ratioP2
60502;SDS011;51448;51.660;5.824;2023-03-01T00:01:44;12.73;;;9.82;;
60502;SDS011;51448;51.660;5.824;2023-03-01T00:04:12;12.85;;;10.52;;
60502;SDS011;51448;51.660;5.824;2023-03-01T00:06:39;12.50;;;10.63;;
60502;SDS011;51448;51.660;5.824;2023-03-01T00:09:09;13.40;;;9.98;;
60502;SDS011;51448;51.660;5.824;2023-03-01T00:11:36;12.70;;;10.25;;
60502;SDS011;51448;51.660;5.824;2023-03-01T00:14:04;12.60;;;10.25;;
60502;SDS011;51448;51.660;5.824;2023-03-01T00:16:35;13.32;;;9.68;;
60502;SDS011;51448;51.660;5.824;2023-03-01T00:19:07;13.52;;;11.07;;
60502;SDS011;51448;51.660;5.824;2023-03-01T00:21:40;13.00;;;10.23;;
60502;SDS011;51448;51.660;5.824;2023-03-01T00:24:08;13.35;;;9.93;;
60502;SDS011;51448;51.660;5.824;2023-03-01T00:26:37;11.93;;;9.55;;
60502;SDS011;51448;51.660;5.824;2023-03-01T00:29:05;13.02;;;9.35;;
60502;SDS011;51448;51.660;5.824;2023-03-01T00:31:34;13.63;;;9.45;;
60502;SDS011;51448;51.660;5.824;2023-03-01T00:34:04;11.82;;;9.50;;
60502;SDS011;51448;51.660;5.824;2023-03-01T00:36:34;13.27;;;9.13;;
60502;SDS011;51448;51.660;5.824;2023-03-01T00:39:04;8.35;;;5.03;;
60502;SDS011;51448;51.660;5.824;2023-03-01T00:41:37;11.55;;;9.02;;
60502;SDS011;51448;51.660;5.824;2023-03-01T00:44:05;11.27;;;9.32;;
60502;SDS011;51448;51.660;5.824;2023-03-01T00:46:35;12.90;;;10.07;;
60502;SDS011;51448;51.660;5.824;2023-03-01T00:49:04;11.88;;;9.52;;
60502;SDS011;51448;51.660;5.824;2023-03-01T00:51:32;13.52;;;9.60;;
60502;SDS011;51448;51.660;5.824;2023-03-01T00:54:01;11.57;;;10.02;;
60502;SDS011;51448;51.660;5.824;2023-03-01T00:56:30;13.65;;;11.27;;
60502;SDS011;51448;51.660;5.824;2023-03-01T00:58:59;13.02;;;9.90;;
60502;SDS011;51448;51.660;5.824;2023-03-01T01:01:28;11.75;;;9.48;;
60502;SDS011;51448;51.660;5.824;2023-03-01T01:04:02;11.77;;;4.97;;
60502;SDS011;51448;51.660;5.824;2023-03-01T01:06:35;15.10;;;10.73;;
60502;SDS011;51448;51.660;5.824;2023-03-01T01:09:11;12.45;;;9.23;;
60502;SDS011;51448;51.660;5.824;2023-03-01T01:11:47;12.57;;;10.23;;
60502;SDS011;51448;51.660;5.824;2023-03-01T01:14:18;12.70;;;10.38;;
60502;SDS011;51448;51.660;5.824;2023-03-01T01:16:48;11.60;;;9.60;;
60502;SDS011;51448;51.660;5.824;2023-03-01T01:19:16;11.65;;;9.77;;
60502;SDS011;51448;51.660;5.824;2023-03-01T01:21:43;12.75;;;10.75;;
60502;SDS011;51448;51.660;5.824;2023-03-01T01:24:12;12.40;;;9.98;;
60502;SDS011;51448;51.660;5.824;2023-03-01T01:26:40;14.32;;;10.50;;
60502;SDS011;51448;51.660;5.824;2023-03-01T01:29:09;13.20;;;10.77;;
60502;SDS011;51448;51.660;5.824;2023-03-01T01:31:38;11.10;;;9.90;;
60502;SDS011;51448;51.660;5.824;2023-03-01T01:34:13;8.00;;;4.32;;
60502;SDS011;51448;51.660;5.824;2023-03-01T01:36:50;12.10;;;10.48;;
60502;SDS011;51448;51.660;5.824;2023-03-01T01:39:22;11.80;;;10.10;;
60502;SDS011;51448;51.660;5.824;2023-03-01T01:41:50;14.00;;;10.70;;
60502;SDS011;51448;51.660;5.824;2023-03-01T01:44:22;11.98;;;9.90;;
60502;SDS011;51448;51.660;5.824;2023-03-01T01:46:59;11.90;;;9.48;;
60502;SDS011;51448;51.660;5.824;2023-03-01T01:57:43;12.27;;;10.75;;
60502;SDS011;51448;51.660;5.824;2023-03-01T02:00:20;12.88;;;10.70;;
60502;SDS011;51448;51.660;5.824;2023-03-01T02:02:58;12.70;;;10.93;;
60502;SDS011;51448;51.660;5.824;2023-03-01T02:05:34;12.23;;;9.95;;
60502;SDS011;51448;51.660;5.824;2023-03-01T02:08:28;12.20;;;10.00;;
60502;SDS011;51448;51.660;5.824;2023-03-01T02:11:00;13.45;;;10.82;;
60502;SDS011;51448;51.660;5.824;2023-03-01T02:13:31;8.55;;;4.20;;
60502;SDS011;51448;51.660;5.824;2023-03-01T02:16:19;12.90;;;10.30;;
60502;SDS011;51448;51.660;5.824;2023-03-01T02:18:47;15.07;;;10.88;;
60502;SDS011;51448;51.660;5.824;2023-03-01T02:21:37;13.13;;;11.35;;
60502;SDS011;51448;51.660;5.824;2023-03-01T02:27:20;10.13;;;4.30;;
60502;SDS011;51448;51.660;5.824;2023-03-01T02:29:55;11.52;;;10.20;;
60502;SDS011;51448;51.660;5.824;2023-03-01T02:32:24;15.50;;;10.55;;
60502;SDS011;51448;51.660;5.824;2023-03-01T02:34:52;14.77;;;10.70;;
60502;SDS011;51448;51.660;5.824;2023-03-01T02:37:23;14.50;;;11.25;;
60502;SDS011;51448;51.660;5.824;2023-03-01T02:39:58;13.48;;;11.35;;
60502;SDS011;51448;51.660;5.824;2023-03-01T02:42:35;13.45;;;10.73;;
60502;SDS011;51448;51.660;5.824;2023-03-01T02:45:12;12.82;;;10.57;;
60502;SDS011;51448;51.660;5.824;2023-03-01T02:47:42;12.30;;;10.98;;
60502;SDS011;51448;51.660;5.824;2023-03-01T02:50:21;9.77;;;4.75;;
60502;SDS011;51448;51.660;5.824;2023-03-01T02:53:11;13.60;;;10.65;;
60502;SDS011;51448;51.660;5.824;2023-03-01T02:55:49;13.13;;;10.82;;
60502;SDS011;51448;51.660;5.824;2023-03-01T02:58:17;12.65;;;10.20;;
60502;SDS011;51448;51.660;5.824;2023-03-01T03:00:45;14.90;;;10.65;;
60502;SDS011;51448;51.660;5.824;2023-03-01T03:03:16;12.48;;;10.32;;
60502;SDS011;51448;51.660;5.824;2023-03-01T03:05:48;12.32;;;10.48;;
60502;SDS011;51448;51.660;5.824;2023-03-01T03:08:16;14.82;;;10.50;;
60502;SDS011;51448;51.660;5.824;2023-03-01T03:10:52;13.32;;;10.13;;
60502;SDS011;51448;51.660;5.824;2023-03-01T03:13:20;14.27;;;11.00;;
60502;SDS011;51448;51.660;5.824;2023-03-01T03:15:49;13.32;;;11.27;;
60502;SDS011;51448;51.660;5.824;2023-03-01T03:18:17;12.55;;;10.27;;
60502;SDS011;51448;51.660;5.824;2023-03-01T03:20:45;12.70;;;10.35;;
60502;SDS011;51448;51.660;5.824;2023-03-01T03:23:14;13.63;;;11.70;;
60502;SDS011;51448;51.660;5.824;2023-03-01T03:25:42;13.55;;;11.10;;
60502;SDS011;51448;51.660;5.824;2023-03-01T03:28:10;18.52;;;11.80;;
60502;SDS011;51448;51.660;5.824;2023-03-01T03:30:39;14.05;;;11.75;;
60502;SDS011;51448;51.660;5.824;2023-03-01T03:33:09;13.02;;;11.43;;
60502;SDS011;51448;51.660;5.824;2023-03-01T03:38:13;12.95;;;11.57;;
60502;SDS011;51448;51.660;5.824;2023-03-01T03:40:48;9.18;;;5.18;;
60502;SDS011;51448;51.660;5.824;2023-03-01T03:43:31;14.07;;;12.15;;
60502;SDS011;51448;51.660;5.824;2023-03-01T03:46:02;9.85;;;6.05;;
60502;SDS011;51448;51.660;5.824;2023-03-01T03:48:33;14.55;;;11.43;;
60502;SDS011;51448;51.660;5.824;2023-03-01T03:51:10;13.88;;;11.90;;
60502;SDS011;51448;51.660;5.824;2023-03-01T03:53:41;9.73;;;5.10;;
60502;SDS011;51448;51.660;5.824;2023-03-01T03:56:10;14.52;;;11.48;;
60502;SDS011;51448;51.660;5.824;2023-03-01T03:58:39;15.52;;;12.02;;
60502;SDS011;51448;51.660;5.824;2023-03-01T04:01:07;15.68;;;12.18;;
60502;SDS011;51448;51.660;5.824;2023-03-01T04:03:35;14.40;;;12.38;;
60502;SDS011;51448;51.660;5.824;2023-03-01T04:06:03;13.13;;;11.73;;
60502;SDS011;51448;51.660;5.824;2023-03-01T04:08:32;15.48;;;12.20;;
60502;SDS011;51448;51.660;5.824;2023-03-01T04:11:01;17.10;;;12.68;;
60502;SDS011;51448;51.660;5.824;2023-03-01T04:13:52;14.57;;;11.87;;
60502;SDS011;51448;51.660;5.824;2023-03-01T04:16:24;15.70;;;12.48;;
60502;SDS011;51448;51.660;5.824;2023-03-01T04:18:52;15.65;;;12.52;;
60502;SDS011;51448;51.660;5.824;2023-03-01T04:21:21;16.55;;;12.43;;
60502;SDS011;51448;51.660;5.824;2023-03-01T04:23:49;14.75;;;12.65;;
60502;SDS011;51448;51.660;5.824;2023-03-01T04:26:19;15.20;;;12.80;;
60502;SDS011;51448;51.660;5.824;2023-03-01T04:28:48;14.73;;;12.02;;
60502;SDS011;51448;51.660;5.824;2023-03-01T04:31:18;15.10;;;13.00;;
60502;SDS011;51448;51.660;5.824;2023-03-01T04:33:49;11.52;;;6.57;;
60502;SDS011;51448;51.660;5.824;2023-03-01T04:36:22;15.32;;;12.25;;
60502;SDS011;51448;51.660;5.824;2023-03-01T04:38:54;14.68;;;11.73;;
60502;SDS011;51448;51.660;5.824;2023-03-01T04:41:23;15.35;;;12.13;;
60502;SDS011;51448;51.660;5.824;2023-03-01T04:43:52;15.38;;;12.35;;
60502;SDS011;51448;51.660;5.824;2023-03-01T04:46:21;16.88;;;12.48;;
60502;SDS011;51448;51.660;5.824;2023-03-01T04:48:49;14.25;;;12.43;;
60502;SDS011;51448;51.660;5.824;2023-03-01T04:51:17;14.60;;;13.07;;
60502;SDS011;51448;51.660;5.824;2023-03-01T04:53:46;17.55;;;13.50;;
60502;SDS011;51448;51.660;5.824;2023-03-01T04:56:14;17.80;;;13.00;;
60502;SDS011;51448;51.660;5.824;2023-03-01T04:58:43;17.52;;;14.13;;
60502;SDS011;51448;51.660;5.824;2023-03-01T05:01:13;13.98;;;12.07;;
60502;SDS011;51448;51.660;5.824;2023-03-01T05:03:45;16.17;;;13.50;;
60502;SDS011;51448;51.660;5.824;2023-03-01T05:06:19;15.45;;;12.73;;
60502;SDS011;51448;51.660;5.824;2023-03-01T05:08:47;16.40;;;12.63;;
60502;SDS011;51448;51.660;5.824;2023-03-01T05:11:15;14.75;;;13.10;;
60502;SDS011;51448;51.660;5.824;2023-03-01T05:13:43;16.00;;;12.57;;
60502;SDS011;51448;51.660;5.824;2023-03-01T05:16:11;16.48;;;12.80;;
60502;SDS011;51448;51.660;5.824;2023-03-01T05:18:40;16.05;;;13.05;;
60502;SDS011;51448;51.660;5.824;2023-03-01T05:21:11;19.48;;;13.07;;
60502;SDS011;51448;51.660;5.824;2023-03-01T05:23:43;16.30;;;13.13;;
60502;SDS011;51448;51.660;5.824;2023-03-01T05:26:12;15.70;;;13.63;;
60502;SDS011;51448;51.660;5.824;2023-03-01T05:28:55;16.77;;;13.65;;
60502;SDS011;51448;51.660;5.824;2023-03-01T05:31:27;15.60;;;12.63;;
60502;SDS011;51448;51.660;5.824;2023-03-01T05:33:55;16.05;;;13.25;;
60502;SDS011;51448;51.660;5.824;2023-03-01T05:36:23;14.65;;;12.30;;
60502;SDS011;51448;51.660;5.824;2023-03-01T05:38:51;15.45;;;12.90;;
60502;SDS011;51448;51.660;5.824;2023-03-01T05:41:18;16.23;;;13.18;;
60502;SDS011;51448;51.660;5.824;2023-03-01T05:43:46;14.60;;;12.48;;
60502;SDS011;51448;51.660;5.824;2023-03-01T05:46:14;15.95;;;13.25;;
60502;SDS011;51448;51.660;5.824;2023-03-01T05:48:42;15.75;;;13.93;;
60502;SDS011;51448;51.660;5.824;2023-03-01T05:51:10;17.20;;;13.55;;
60502;SDS011;51448;51.660;5.824;2023-03-01T05:53:39;15.13;;;13.02;;
60502;SDS011;51448;51.660;5.824;2023-03-01T05:56:07;15.43;;;13.35;;
60502;SDS011;51448;51.660;5.824;2023-03-01T05:58:34;11.50;;;5.90;;
60502;SDS011;51448;51.660;5.824;2023-03-01T06:01:02;15.95;;;13.60;;
60502;SDS011;51448;51.660;5.824;2023-03-01T06:03:30;16.90;;;13.57;;
60502;SDS011;51448;51.660;5.824;2023-03-01T06:05:58;17.27;;;12.85;;
60502;SDS011;51448;51.660;5.824;2023-03-01T06:08:25;18.13;;;13.60;;
60502;SDS011;51448;51.660;5.824;2023-03-01T06:10:54;15.55;;;13.35;;
60502;SDS011;51448;51.660;5.824;2023-03-01T06:13:22;15.38;;;13.40;;
60502;SDS011;51448;51.660;5.824;2023-03-01T06:15:51;15.07;;;13.30;;
60502;SDS011;51448;51.660;5.824;2023-03-01T06:18:19;18.73;;;13.52;;
60502;SDS011;51448;51.660;5.824;2023-03-01T06:20:52;11.85;;;5.32;;
60502;SDS011;51448;51.660;5.824;2023-03-01T06:23:23;15.95;;;14.13;;
60502;SDS011;51448;51.660;5.824;2023-03-01T06:25:52;16.00;;;13.38;;
60502;SDS011;51448;51.660;5.824;2023-03-01T06:28:19;16.02;;;13.80;;
60502;SDS011;51448;51.660;5.824;2023-03-01T06:30:49;16.58;;;14.02;;
60502;SDS011;51448;51.660;5.824;2023-03-01T06:33:18;14.95;;;13.30;;
60502;SDS011;51448;51.660;5.824;2023-03-01T06:35:47;16.23;;;13.80;;
60502;SDS011;51448;51.660;5.824;2023-03-01T06:38:15;16.38;;;14.20;;
60502;SDS011;51448;51.660;5.824;2023-03-01T06:40:44;16.75;;;14.85;;
60502;SDS011;51448;51.660;5.824;2023-03-01T06:43:19;16.65;;;14.70;;
60502;SDS011;51448;51.660;5.824;2023-03-01T06:45:48;19.27;;;14.73;;
60502;SDS011;51448;51.660;5.824;2023-03-01T06:48:16;18.83;;;15.45;;
60502;SDS011;51448;51.660;5.824;2023-03-01T06:50:44;16.67;;;14.90;;
60502;SDS011;51448;51.660;5.824;2023-03-01T06:53:12;14.77;;;6.82;;
60502;SDS011;51448;51.660;5.824;2023-03-01T06:55:40;15.85;;;14.02;;
60502;SDS011;51448;51.660;5.824;2023-03-01T06:58:08;18.15;;;13.95;;
60502;SDS011;51448;51.660;5.824;2023-03-01T07:00:37;17.50;;;15.35;;
60502;SDS011;51448;51.660;5.824;2023-03-01T07:03:04;17.25;;;14.15;;
60502;SDS011;51448;51.660;5.824;2023-03-01T07:05:32;16.63;;;13.70;;
60502;SDS011;51448;51.660;5.824;2023-03-01T07:08:01;16.60;;;14.68;;
60502;SDS011;51448;51.660;5.824;2023-03-01T07:10:28;15.95;;;13.57;;
60502;SDS011;51448;51.660;5.824;2023-03-01T07:12:56;15.25;;;13.48;;
60502;SDS011;51448;51.660;5.824;2023-03-01T07:15:26;19.27;;;14.70;;
60502;SDS011;51448;51.660;5.824;2023-03-01T07:17:55;18.55;;;13.60;;
60502;SDS011;51448;51.660;5.824;2023-03-01T07:20:23;15.13;;;12.98;;
60502;SDS011;51448;51.660;5.824;2023-03-01T07:22:53;17.27;;;14.05;;
60502;SDS011;51448;51.660;5.824;2023-03-01T07:25:22;15.02;;;13.43;;
60502;SDS011;51448;51.660;5.824;2023-03-01T07:27:51;17.27;;;13.25;;
60502;SDS011;51448;51.660;5.824;2023-03-01T07:30:20;17.15;;;14.18;;
60502;SDS011;51448;51.660;5.824;2023-03-01T07:32:48;19.30;;;14.30;;
60502;SDS011;51448;51.660;5.824;2023-03-01T07:35:17;19.25;;;14.15;;
60502;SDS011;51448;51.660;5.824;2023-03-01T07:37:45;21.33;;;15.85;;
60502;SDS011;51448;51.660;5.824;2023-03-01T07:40:12;19.33;;;14.50;;
60502;SDS011;51448;51.660;5.824;2023-03-01T07:42:41;18.35;;;12.82;;
60502;SDS011;51448;51.660;5.824;2023-03-01T07:45:09;15.10;;;13.10;;
60502;SDS011;51448;51.660;5.824;2023-03-01T07:47:37;14.13;;;12.45;;
60502;SDS011;51448;51.660;5.824;2023-03-01T07:50:04;18.23;;;12.82;;
60502;SDS011;51448;51.660;5.824;2023-03-01T07:52:33;14.88;;;13.02;;
60502;SDS011;51448;51.660;5.824;2023-03-01T07:55:00;15.65;;;13.23;;
60502;SDS011;51448;51.660;5.824;2023-03-01T07:57:28;21.50;;;12.90;;
60502;SDS011;51448;51.660;5.824;2023-03-01T07:59:56;19.17;;;13.20;;
60502;SDS011;51448;51.660;5.824;2023-03-01T08:02:24;16.17;;;12.82;;
60502;SDS011;51448;51.660;5.824;2023-03-01T08:04:52;15.60;;;12.75;;
60502;SDS011;51448;51.660;5.824;2023-03-01T08:07:19;16.20;;;13.52;;
60502;SDS011;51448;51.660;5.824;2023-03-01T08:09:47;15.75;;;12.95;;
60502;SDS011;51448;51.660;5.824;2023-03-01T08:12:16;18.67;;;13.52;;
60502;SDS011;51448;51.660;5.824;2023-03-01T08:14:44;15.10;;;13.00;;
60502;SDS011;51448;51.660;5.824;2023-03-01T08:17:13;17.70;;;13.02;;
60502;SDS011;51448;51.660;5.824;2023-03-01T08:19:43;16.50;;;12.90;;
60502;SDS011;51448;51.660;5.824;2023-03-01T08:22:10;14.60;;;12.48;;
60502;SDS011;51448;51.660;5.824;2023-03-01T08:24:38;17.55;;;12.35;;
60502;SDS011;51448;51.660;5.824;2023-03-01T08:27:06;16.88;;;11.85;;
60502;SDS011;51448;51.660;5.824;2023-03-01T08:29:34;15.82;;;11.95;;
60502;SDS011;51448;51.660;5.824;2023-03-01T08:32:01;15.18;;;12.05;;
60502;SDS011;51448;51.660;5.824;2023-03-01T08:34:30;14.48;;;12.15;;
60502;SDS011;51448;51.660;5.824;2023-03-01T08:36:58;15.13;;;11.25;;
60502;SDS011;51448;51.660;5.824;2023-03-01T08:39:26;14.23;;;10.82;;
60502;SDS011;51448;51.660;5.824;2023-03-01T08:41:54;15.70;;;11.32;;
60502;SDS011;51448;51.660;5.824;2023-03-01T08:44:22;12.25;;;9.70;;
60502;SDS011;51448;51.660;5.824;2023-03-01T08:46:50;14.52;;;10.07;;
60502;SDS011;51448;51.660;5.824;2023-03-01T08:49:20;12.55;;;9.70;;
60502;SDS011;51448;51.660;5.824;2023-03-01T08:51:48;14.10;;;9.18;;
60502;SDS011;51448;51.660;5.824;2023-03-01T08:54:17;12.25;;;9.43;;
60502;SDS011;51448;51.660;5.824;2023-03-01T08:56:48;14.68;;;9.88;;
60502;SDS011;51448;51.660;5.824;2023-03-01T08:59:16;12.27;;;9.00;;
60502;SDS011;51448;51.660;5.824;2023-03-01T09:01:44;13.10;;;9.70;;
60502;SDS011;51448;51.660;5.824;2023-03-01T09:04:12;12.50;;;8.85;;
60502;SDS011;51448;51.660;5.824;2023-03-01T09:06:42;11.93;;;8.80;;
60502;SDS011;51448;51.660;5.824;2023-03-01T09:09:14;15.23;;;8.98;;
60502;SDS011;51448;51.660;5.824;2023-03-01T09:11:44;10.02;;;7.43;;
60502;SDS011;51448;51.660;5.824;2023-03-01T09:14:13;11.18;;;8.20;;
60502;SDS011;51448;51.660;5.824;2023-03-01T09:16:42;11.38;;;8.40;;
60502;SDS011;51448;51.660;5.824;2023-03-01T09:19:10;15.32;;;8.18;;
60502;SDS011;51448;51.660;5.824;2023-03-01T09:21:38;12.32;;;8.88;;
60502;SDS011;51448;51.660;5.824;2023-03-01T09:24:12;14.70;;;8.25;;
60502;SDS011;51448;51.660;5.824;2023-03-01T09:26:42;12.07;;;7.93;;
60502;SDS011;51448;51.660;5.824;2023-03-01T09:29:14;11.45;;;8.15;;
60502;SDS011;51448;51.660;5.824;2023-03-01T09:31:42;10.00;;;7.25;;
60502;SDS011;51448;51.660;5.824;2023-03-01T09:34:10;9.98;;;6.95;;
60502;SDS011;51448;51.660;5.824;2023-03-01T09:36:38;10.07;;;7.10;;
60502;SDS011;51448;51.660;5.824;2023-03-01T09:39:06;11.88;;;7.00;;
60502;SDS011;51448;51.660;5.824;2023-03-01T09:44:26;10.43;;;6.85;;
60502;SDS011;51448;51.660;5.824;2023-03-01T09:47:16;11.13;;;6.45;;
60502;SDS011;51448;51.660;5.824;2023-03-01T09:49:53;9.65;;;6.68;;
60502;SDS011;51448;51.660;5.824;2023-03-01T09:55:42;15.27;;;7.45;;
60502;SDS011;51448;51.660;5.824;2023-03-01T10:04:04;11.23;;;7.50;;
60502;SDS011;51448;51.660;5.824;2023-03-01T10:07:02;11.52;;;7.80;;
60502;SDS011;51448;51.660;5.824;2023-03-01T10:09:39;12.60;;;9.15;;
60502;SDS011;51448;51.660;5.824;2023-03-01T10:12:11;12.02;;;8.35;;
60502;SDS011;51448;51.660;5.824;2023-03-01T10:15:02;10.93;;;7.72;;
60502;SDS011;51448;51.660;5.824;2023-03-01T10:20:26;9.90;;;7.10;;
60502;SDS011;51448;51.660;5.824;2023-03-01T10:23:10;10.23;;;7.40;;
60502;SDS011;51448;51.660;5.824;2023-03-01T10:28:10;10.90;;;8.02;;
60502;SDS011;51448;51.660;5.824;2023-03-01T10:30:52;10.18;;;6.90;;
60502;SDS011;51448;51.660;5.824;2023-03-01T10:33:25;11.18;;;7.90;;
60502;SDS011;51448;51.660;5.824;2023-03-01T10:35:58;13.75;;;7.40;;
60502;SDS011;51448;51.660;5.824;2023-03-01T10:38:26;10.43;;;6.95;;
60502;SDS011;51448;51.660;5.824;2023-03-01T10:41:13;11.05;;;7.25;;
60502;SDS011;51448;51.660;5.824;2023-03-01T10:43:48;10.82;;;7.22;;
60502;SDS011;51448;51.660;5.824;2023-03-01T10:46:34;9.98;;;6.82;;
60502;SDS011;51448;51.660;5.824;2023-03-01T10:51:45;11.25;;;8.27;;
60502;SDS011;51448;51.660;5.824;2023-03-01T10:54:34;9.88;;;7.05;;
60502;SDS011;51448;51.660;5.824;2023-03-01T10:57:03;12.43;;;7.50;;
60502;SDS011;51448;51.660;5.824;2023-03-01T10:59:34;10.18;;;8.00;;
60502;SDS011;51448;51.660;5.824;2023-03-01T11:10:23;10.73;;;6.93;;
60502;SDS011;51448;51.660;5.824;2023-03-01T11:13:13;10.43;;;6.75;;
60502;SDS011;51448;51.660;5.824;2023-03-01T11:16:06;9.63;;;6.85;;
60502;SDS011;51448;51.660;5.824;2023-03-01T11:18:39;11.43;;;7.18;;
60502;SDS011;51448;51.660;5.824;2023-03-01T11:21:17;10.30;;;7.53;;
60502;SDS011;51448;51.660;5.824;2023-03-01T11:23:45;9.27;;;6.78;;
60502;SDS011;51448;51.660;5.824;2023-03-01T11:26:14;10.80;;;7.22;;
60502;SDS011;51448;51.660;5.824;2023-03-01T11:28:47;9.90;;;7.00;;
60502;SDS011;51448;51.660;5.824;2023-03-01T11:31:21;11.43;;;6.72;;
60502;SDS011;51448;51.660;5.824;2023-03-01T11:34:13;11.73;;;6.85;;
60502;SDS011;51448;51.660;5.824;2023-03-01T11:36:52;9.18;;;6.80;;
60502;SDS011;51448;51.660;5.824;2023-03-01T11:42:20;12.07;;;7.32;;
60502;SDS011;51448;51.660;5.824;2023-03-01T11:45:08;11.10;;;6.47;;
60502;SDS011;51448;51.660;5.824;2023-03-01T11:56:09;10.50;;;7.95;;
60502;SDS011;51448;51.660;5.824;2023-03-01T12:08:08;10.13;;;6.75;;
60502;SDS011;51448;51.660;5.824;2023-03-01T12:13:46;11.32;;;7.20;;
60502;SDS011;51448;51.660;5.824;2023-03-01T12:20:11;10.82;;;6.80;;
60502;SDS011;51448;51.660;5.824;2023-03-01T12:25:48;8.57;;;6.30;;
60502;SDS011;51448;51.660;5.824;2023-03-01T12:34:03;9.45;;;6.38;;
60502;SDS011;51448;51.660;5.824;2023-03-01T12:37:21;10.73;;;6.47;;
60502;SDS011;51448;51.660;5.824;2023-03-01T12:49:08;10.00;;;6.82;;
60502;SDS011;51448;51.660;5.824;2023-03-01T12:51:44;9.68;;;5.75;;
60502;SDS011;51448;51.660;5.824;2023-03-01T12:54:30;10.40;;;6.47;;
60502;SDS011;51448;51.660;5.824;2023-03-01T12:57:06;10.50;;;7.10;;
60502;SDS011;51448;51.660;5.824;2023-03-01T13:00:06;10.07;;;6.32;;
60502;SDS011;51448;51.660;5.824;2023-03-01T13:02:59;9.40;;;6.55;;
60502;SDS011;51448;51.660;5.824;2023-03-01T13:05:52;11.00;;;7.30;;
60502;SDS011;51448;51.660;5.824;2023-03-01T13:08:38;10.25;;;6.45;;
60502;SDS011;51448;51.660;5.824;2023-03-01T13:11:22;10.43;;;6.53;;
60502;SDS011;51448;51.660;5.824;2023-03-01T13:13:51;10.95;;;7.53;;
60502;SDS011;51448;51.660;5.824;2023-03-01T13:19:06;9.60;;;6.93;;
60502;SDS011;51448;51.660;5.824;2023-03-01T13:21:44;9.98;;;7.47;;
60502;SDS011;51448;51.660;5.824;2023-03-01T13:29:48;9.50;;;6.10;;
60502;SDS011;51448;51.660;5.824;2023-03-01T13:32:24;8.70;;;5.88;;
60502;SDS011;51448;51.660;5.824;2023-03-01T13:37:44;11.50;;;7.20;;
60502;SDS011;51448;51.660;5.824;2023-03-01T13:42:52;10.73;;;6.60;;
60502;SDS011;51448;51.660;5.824;2023-03-01T13:45:38;9.90;;;6.32;;
60502;SDS011;51448;51.660;5.824;2023-03-01T13:48:18;10.07;;;7.13;;
60502;SDS011;51448;51.660;5.824;2023-03-01T13:50:54;10.93;;;7.15;;
60502;SDS011;51448;51.660;5.824;2023-03-01T13:53:35;10.73;;;6.95;;
60502;SDS011;51448;51.660;5.824;2023-03-01T13:56:13;10.77;;;6.32;;
60502;SDS011;51448;51.660;5.824;2023-03-01T13:58:54;11.07;;;7.70;;
60502;SDS011;51448;51.660;5.824;2023-03-01T14:01:34;11.63;;;8.07;;
60502;SDS011;51448;51.660;5.824;2023-03-01T14:04:17;12.33;;;6.80;;
60502;SDS011;51448;51.660;5.824;2023-03-01T14:07:18;11.82;;;7.65;;
60502;SDS011;51448;51.660;5.824;2023-03-01T14:09:57;11.07;;;7.47;;
60502;SDS011;51448;51.660;5.824;2023-03-01T14:20:44;10.15;;;7.25;;
60502;SDS011;51448;51.660;5.824;2023-03-01T14:23:21;10.10;;;7.35;;
60502;SDS011;51448;51.660;5.824;2023-03-01T14:25:51;11.18;;;6.88;;
60502;SDS011;51448;51.660;5.824;2023-03-01T14:28:26;11.20;;;7.75;;
60502;SDS011;51448;51.660;5.824;2023-03-01T14:31:29;11.95;;;8.20;;
60502;SDS011;51448;51.660;5.824;2023-03-01T14:34:22;12.35;;;8.10;;
60502;SDS011;51448;51.660;5.824;2023-03-01T14:36:52;12.65;;;8.23;;
60502;SDS011;51448;51.660;5.824;2023-03-01T14:39:22;12.73;;;9.32;;
60502;SDS011;51448;51.660;5.824;2023-03-01T14:41:53;11.20;;;7.47;;
60502;SDS011;51448;51.660;5.824;2023-03-01T14:44:23;9.68;;;7.07;;
60502;SDS011;51448;51.660;5.824;2023-03-01T14:46:52;11.88;;;8.55;;
60502;SDS011;51448;51.660;5.824;2023-03-01T14:49:25;13.00;;;7.45;;
60502;SDS011;51448;51.660;5.824;2023-03-01T14:52:05;10.50;;;7.90;;
60502;SDS011;51448;51.660;5.824;2023-03-01T14:54:46;11.77;;;8.52;;
60502;SDS011;51448;51.660;5.824;2023-03-01T14:57:20;11.38;;;7.95;;
60502;SDS011;51448;51.660;5.824;2023-03-01T14:59:54;12.35;;;8.32;;
60502;SDS011;51448;51.660;5.824;2023-03-01T15:02:27;12.65;;;8.23;;
60502;SDS011;51448;51.660;5.824;2023-03-01T15:04:59;11.07;;;7.57;;
60502;SDS011;51448;51.660;5.824;2023-03-01T15:07:37;12.00;;;7.70;;
60502;SDS011;51448;51.660;5.824;2023-03-01T15:10:16;12.50;;;8.05;;
60502;SDS011;51448;51.660;5.824;2023-03-01T15:12:54;11.90;;;7.35;;
60502;SDS011;51448;51.660;5.824;2023-03-01T15:17:58;13.05;;;9.13;;
60502;SDS011;51448;51.660;5.824;2023-03-01T15:20:30;11.57;;;8.23;;
60502;SDS011;51448;51.660;5.824;2023-03-01T15:23:02;10.50;;;8.02;;
60502;SDS011;51448;51.660;5.824;2023-03-01T15:25:31;12.30;;;8.27;;
60502;SDS011;51448;51.660;5.824;2023-03-01T15:28:01;12.50;;;9.00;;
60502;SDS011;51448;51.660;5.824;2023-03-01T15:30:33;13.43;;;8.25;;
60502;SDS011;51448;51.660;5.824;2023-03-01T15:35:58;11.27;;;7.93;;
60502;SDS011;51448;51.660;5.824;2023-03-01T15:38:36;9.98;;;7.00;;
60502;SDS011;51448;51.660;5.824;2023-03-01T15:41:25;11.80;;;8.15;;
60502;SDS011;51448;51.660;5.824;2023-03-01T15:43:59;11.93;;;8.35;;
60502;SDS011;51448;51.660;5.824;2023-03-01T15:46:44;12.07;;;8.35;;
60502;SDS011;51448;51.660;5.824;2023-03-01T15:52:25;12.43;;;8.30;;
60502;SDS011;51448;51.660;5.824;2023-03-01T15:55:14;10.95;;;8.50;;
60502;SDS011;51448;51.660;5.824;2023-03-01T15:57:57;11.88;;;7.47;;
60502;SDS011;51448;51.660;5.824;2023-03-01T16:00:45;10.80;;;7.78;;
60502;SDS011;51448;51.660;5.824;2023-03-01T16:03:28;10.88;;;7.65;;
60502;SDS011;51448;51.660;5.824;2023-03-01T16:05:56;12.35;;;7.63;;
60502;SDS011;51448;51.660;5.824;2023-03-01T16:08:24;10.68;;;6.90;;
60502;SDS011;51448;51.660;5.824;2023-03-01T16:10:51;13.10;;;7.93;;
60502;SDS011;51448;51.660;5.824;2023-03-01T16:13:21;12.20;;;7.15;;
60502;SDS011;51448;51.660;5.824;2023-03-01T16:15:49;12.20;;;8.57;;
60502;SDS011;51448;51.660;5.824;2023-03-01T16:18:17;11.57;;;7.53;;
60502;SDS011;51448;51.660;5.824;2023-03-01T16:20:45;11.10;;;7.45;;
60502;SDS011;51448;51.660;5.824;2023-03-01T16:23:12;10.45;;;7.03;;
60502;SDS011;51448;51.660;5.824;2023-03-01T16:25:41;8.80;;;6.45;;
60502;SDS011;51448;51.660;5.824;2023-03-01T16:28:09;11.55;;;7.00;;
60502;SDS011;51448;51.660;5.824;2023-03-01T16:30:37;10.82;;;6.90;;
60502;SDS011;51448;51.660;5.824;2023-03-01T16:33:07;9.93;;;6.80;;
60502;SDS011;51448;51.660;5.824;2023-03-01T16:35:56;10.85;;;7.07;;
60502;SDS011;51448;51.660;5.824;2023-03-01T16:38:24;10.38;;;6.75;;
60502;SDS011;51448;51.660;5.824;2023-03-01T16:40:51;11.95;;;7.03;;
60502;SDS011;51448;51.660;5.824;2023-03-01T16:43:19;9.82;;;6.80;;
60502;SDS011;51448;51.660;5.824;2023-03-01T16:45:48;9.20;;;6.32;;
60502;SDS011;51448;51.660;5.824;2023-03-01T16:48:16;9.52;;;6.18;;
60502;SDS011;51448;51.660;5.824;2023-03-01T16:50:44;11.20;;;7.50;;
60502;SDS011;51448;51.660;5.824;2023-03-01T16:53:12;11.50;;;7.15;;
60502;SDS011;51448;51.660;5.824;2023-03-01T16:55:41;9.27;;;6.60;;
60502;SDS011;51448;51.660;5.824;2023-03-01T16:58:12;11.55;;;7.22;;